.
WxDataArchive / Data Records for 2014-02-13
2014-02-12 February 2014 2014-02-14

Data Records for Thursday, 13 February 2014

Time	Temp	Chill	HIndex	Humid	Dewpt	 Wind 	HiWind	WindDir	Rain 	Barom 
-----	----	-----	------	-----	-----	------	------	-------	-----	----- 
00:00	5.2	5.2	5.2	76	-0.7	0	0	---	0.00	30.122 
00:05	5.0	5.0	5.0	76	-0.9	0	0	---	0.00	30.122 
00:10	4.8	4.8	4.8	77	-0.8	0	0	---	0.00	30.122 
00:15	4.8	4.8	4.8	78	-0.5	0	0	---	0.00	30.109 
00:20	5.0	5.0	5.0	78	-0.3	0	0	---	0.00	30.109 
00:25	5.0	5.0	5.0	78	-0.3	0	0	---	0.00	30.109 
00:30	5.2	5.2	5.2	79	0.1	0	0	---	0.00	30.106 
00:35	5.4	5.4	5.4	79	0.3	0	1	90	0.00	30.106 
00:40	5.8	5.8	5.8	79	0.7	0	1	90	0.00	30.106 
00:45	6.0	6.0	6.0	79	0.9	0	0	---	0.00	30.097 
00:50	6.0	6.0	6.0	79	0.9	0	0	---	0.00	30.097 
00:55	6.0	6.0	6.0	79	0.9	0	1	90	0.00	30.097 
01:00	6.3	6.3	6.3	79	1.2	0	2	90	0.00	30.098 
01:05	6.7	6.7	6.7	79	1.6	0	1	90	0.00	30.098 
01:10	6.9	6.9	6.9	78	1.5	0	2	90	0.00	30.098 
01:15	6.7	6.7	6.7	78	1.3	0	0	---	0.00	30.088 
01:20	6.5	6.5	6.5	77	0.9	0	0	---	0.00	30.088 
01:25	6.3	6.3	6.3	78	0.9	0	1	90	0.00	30.088 
01:30	6.3	6.3	6.3	78	0.9	0	1	90	0.00	30.087 
01:35	6.3	6.3	6.3	78	0.9	0	1	90	0.00	30.087 
01:40	6.3	6.3	6.3	78	0.9	0	1	90	0.00	30.087 
01:45	6.3	6.3	6.3	78	0.9	0	0	---	0.00	30.074 
01:50	6.1	6.1	6.1	78	0.7	0	0	---	0.00	30.074 
01:55	6.0	6.0	6.0	78	0.6	0	0	---	0.00	30.074 
02:00	5.6	5.6	5.6	78	0.3	0	0	---	0.00	30.070 
02:05	5.4	5.4	5.4	78	0.1	0	0	---	0.00	30.070 
02:10	5.0	5.0	5.0	78	-0.3	0	0	---	0.00	30.070 
02:15	4.8	4.8	4.8	78	-0.5	0	0	---	0.00	30.060 
02:20	4.5	4.5	4.5	78	-0.8	0	0	---	0.00	30.060 
02:25	4.3	4.3	4.3	78	-1.0	0	0	---	0.00	30.060 
02:30	4.1	4.1	4.1	78	-1.2	0	0	---	0.00	30.056 
02:35	4.1	4.1	4.1	78	-1.2	0	0	---	0.00	30.056 
02:40	4.1	4.1	4.1	79	-0.9	0	0	---	0.00	30.056 
02:45	4.1	4.1	4.1	79	-0.9	0	0	---	0.00	30.055 
02:50	3.9	3.9	3.9	79	-1.1	0	0	---	0.00	30.055 
02:55	4.1	4.1	4.1	79	-0.9	0	0	---	0.00	30.055 
03:00	4.3	4.3	4.3	80	-0.5	0	0	---	0.00	30.053 
03:05	4.8	4.8	4.8	80	0.0	0	0	---	0.00	30.053 
03:10	5.0	5.0	5.0	81	0.5	0	0	---	0.00	30.053 
03:15	5.0	5.0	5.0	81	0.5	0	0	---	0.00	30.053 
03:20	5.2	5.2	5.2	81	0.7	0	0	---	0.00	30.053 
03:25	5.2	5.2	5.2	81	0.7	0	0	---	0.00	30.053 
03:30	5.0	5.0	5.0	80	0.2	0	0	---	0.00	30.053 
03:35	5.0	5.0	5.0	80	0.2	0	0	---	0.00	30.053 
03:40	4.8	4.8	4.8	80	0.0	0	0	---	0.00	30.053 
03:45	4.5	4.5	4.5	80	-0.3	0	0	---	0.00	30.047 
03:50	4.3	4.3	4.3	80	-0.5	0	0	---	0.00	30.047 
03:55	4.1	4.1	4.1	80	-0.7	0	0	---	0.00	30.047 
04:00	4.3	4.3	4.3	81	-0.2	0	0	---	0.00	30.045 
04:05	4.7	4.7	4.7	81	0.2	0	0	---	0.00	30.045 
04:10	5.0	5.0	5.0	81	0.5	0	0	---	0.00	30.045 
04:15	5.4	5.4	5.4	81	0.9	0	0	---	0.00	30.044 
04:20	5.6	5.6	5.6	81	1.1	0	0	---	0.00	30.044 
04:25	6.1	6.1	6.1	82	1.8	0	0	---	0.00	30.044 
04:30	6.5	6.5	6.5	82	2.2	0	1	90	0.00	30.040 
04:35	6.7	6.7	6.7	81	2.1	0	0	---	0.00	30.040 
04:40	6.7	6.7	6.7	81	2.1	0	0	---	0.00	30.040 
04:45	6.5	6.5	6.5	80	1.7	0	2	90	0.00	30.044 
04:50	6.5	6.5	6.5	80	1.7	1	2	90	0.00	30.044 
04:55	6.3	6.3	6.3	80	1.5	0	1	90	0.00	30.044 
05:00	6.1	6.1	6.1	80	1.3	0	1	90	0.00	30.035 
05:05	6.1	6.1	6.1	79	1.0	0	1	90	0.00	30.035 
05:10	6.0	6.0	6.0	79	0.9	0	0	---	0.00	30.035 
05:15	5.6	5.6	5.6	79	0.5	0	0	---	0.00	30.035 
05:20	5.2	5.2	5.2	79	0.1	0	0	---	0.00	30.035 
05:25	4.8	4.8	4.8	78	-0.5	0	0	---	0.00	30.035 
05:30	4.5	4.5	4.5	78	-0.8	0	0	---	0.00	30.039 
05:35	4.1	4.1	4.1	78	-1.2	0	0	---	0.00	30.039 
05:40	3.9	3.9	3.9	78	-1.4	0	0	---	0.00	30.039 
05:45	3.7	3.7	3.7	79	-1.3	0	0	---	0.00	30.040 
05:50	3.5	3.5	3.5	79	-1.5	0	0	---	0.00	30.040 
05:55	3.4	3.4	3.4	78	-1.9	0	0	---	0.00	30.040 
06:00	3.0	3.0	3.0	78	-2.3	0	0	---	0.00	30.039 
06:05	2.8	2.8	2.8	78	-2.5	0	0	---	0.00	30.039 
06:10	2.6	2.6	2.6	79	-2.4	0	0	---	0.00	30.039 
06:15	2.4	2.4	2.4	79	-2.6	0	0	---	0.00	30.039 
06:20	2.2	2.2	2.2	79	-2.8	0	0	---	0.00	30.039 
06:25	2.0	2.0	2.0	79	-3.0	0	1	90	0.00	30.039 
06:30	2.0	2.0	2.0	80	-2.7	0	0	---	0.00	30.026 
06:35	2.2	2.2	2.2	80	-2.5	0	0	---	0.00	30.026 
06:40	2.4	2.4	2.4	81	-2.1	0	0	---	0.00	30.026 
06:45	2.4	2.4	2.4	81	-2.1	0	0	---	0.00	30.019 
06:50	2.4	2.4	2.4	81	-2.1	0	1	90	0.00	30.019 
06:55	2.6	2.6	2.6	81	-1.9	0	1	90	0.00	30.019 
07:00	2.8	2.8	2.8	81	-1.7	0	0	---	0.00	30.008 
07:05	3.0	3.0	3.0	81	-1.5	0	0	---	0.00	30.008 
07:10	3.2	3.2	3.2	82	-1.0	0	0	---	0.00	30.008 
07:15	3.4	3.4	3.4	81	-1.1	0	1	90	0.00	30.002 
07:20	3.4	3.4	3.4	81	-1.1	0	0	---	0.00	30.002 
07:25	3.2	3.2	3.2	81	-1.3	0	0	---	0.00	30.002 
07:30	3.0	3.0	3.0	81	-1.5	0	0	---	0.00	30.004 
07:35	2.8	2.8	2.8	81	-1.7	0	0	---	0.00	30.004 
07:40	2.6	2.6	2.6	81	-1.9	0	0	---	0.00	30.004 
07:45	2.4	2.4	2.4	81	-2.1	0	0	---	0.00	30.000 
07:50	2.2	2.2	2.2	81	-2.3	0	0	---	0.00	30.000 
07:55	2.2	2.2	2.2	81	-2.3	0	0	---	0.00	30.000 
08:00	2.0	2.0	2.0	81	-2.5	0	0	---	0.00	29.995 
08:05	2.0	2.0	2.0	81	-2.5	0	0	---	0.00	29.995 
08:10	2.0	2.0	2.0	81	-2.5	0	0	---	0.00	29.995 
08:15	2.2	2.2	2.2	81	-2.3	0	0	---	0.00	29.994 
08:20	2.4	2.4	2.4	81	-2.1	0	0	---	0.00	29.994 
08:25	2.8	2.8	2.8	82	-1.4	0	0	---	0.00	29.994 
08:30	3.5	3.5	3.5	82	-0.7	0	0	---	0.00	29.992 
08:35	4.3	4.3	4.3	82	0.0	0	0	---	0.00	29.992 
08:40	4.8	4.8	4.8	82	0.5	0	0	---	0.00	29.992 
08:45	5.6	5.6	5.6	83	1.6	0	0	---	0.00	29.991 
08:50	6.5	6.5	6.5	83	2.5	0	1	90	0.00	29.991 
08:55	7.4	7.4	7.4	83	3.3	0	1	90	0.00	29.991 
09:00	8.3	8.3	8.3	83	4.2	0	2	90	0.00	29.985 
09:05	9.0	9.0	9.0	82	4.6	1	4	90	0.00	29.985 
09:10	9.5	9.5	9.5	80	4.6	2	5	90	0.00	29.985 
09:15	9.9	9.9	9.9	79	4.7	1	3	90	0.00	29.982 
09:20	10.2	10.2	10.2	77	4.5	2	4	90	0.00	29.982 
09:25	10.2	10.2	10.2	76	4.2	2	4	90	0.00	29.982 
09:30	10.5	10.5	10.5	76	4.5	2	4	90	0.00	29.972 
09:35	10.7	10.7	10.7	75	4.4	2	5	90	0.00	29.972 
09:40	10.9	10.9	10.9	75	4.6	1	4	112	0.00	29.972 
09:45	11.1	11.1	11.1	74	4.5	3	6	90	0.00	29.961 
09:50	11.1	11.1	11.1	73	4.2	3	4	90	0.00	29.961 
09:55	11.2	11.2	11.2	73	4.3	2	5	68	0.00	29.961 
10:00	11.7	11.7	11.7	73	4.7	1	5	90	0.00	29.956 
10:05	12.4	12.4	12.4	71	4.8	1	5	90	0.00	29.956 
10:10	12.6	12.6	12.6	71	5.0	1	3	112	0.00	29.956 
10:15	12.6	12.6	12.6	71	5.0	1	3	112	0.00	29.956 
10:20	12.9	12.9	12.9	70	5.0	1	3	112	0.00	29.956 
10:25	13.1	13.1	13.1	69	4.9	2	4	112	0.00	29.956 
10:30	13.3	13.3	13.3	69	5.1	2	3	112	0.00	29.950 
10:35	13.5	13.5	13.5	69	5.3	1	3	112	0.00	29.950 
10:40	13.6	13.6	13.6	69	5.4	2	4	112	0.00	29.950 
10:45	13.8	13.8	13.8	68	5.2	2	4	112	0.00	29.940 
10:50	14.0	14.0	14.0	68	5.4	1	3	112	0.00	29.940 
10:55	14.4	14.4	14.4	69	6.1	1	2	112	0.00	29.940 
11:00	15.1	15.1	15.1	66	5.8	1	2	112	0.00	29.933 
11:05	15.2	15.2	15.2	66	5.9	1	3	112	0.00	29.933 
11:10	15.4	15.4	15.4	66	6.1	1	3	112	0.00	29.933 
11:15	15.7	15.7	15.7	65	6.1	1	2	112	0.00	29.926 
11:20	16.2	16.2	16.2	65	6.5	1	2	112	0.00	29.926 
11:25	16.9	16.9	16.9	65	7.2	1	2	112	0.00	29.926 
11:30	17.5	17.5	17.5	63	7.1	0	2	112	0.00	29.921 
11:35	18.0	18.0	18.0	62	7.2	0	2	112	0.00	29.921 
11:40	18.3	18.3	18.3	61	7.1	1	3	112	0.00	29.921 
11:45	18.1	18.1	18.1	60	6.6	0	2	112	0.00	29.920 
11:50	18.3	18.3	18.3	60	6.8	0	2	112	0.00	29.920 
11:55	18.9	18.9	18.9	60	7.3	0	2	112	0.00	29.920 
12:00	19.4	19.4	19.4	59	7.4	0	2	112	0.00	29.905 
12:05	19.9	19.9	19.9	58	7.5	0	2	112	0.00	29.905 
12:10	20.0	20.0	20.0	58	7.6	0	1	112	0.00	29.905 
12:15	20.2	20.2	20.2	58	7.8	0	1	112	0.00	29.902 
12:20	20.2	20.2	20.2	57	7.4	0	2	112	0.00	29.902 
12:25	20.0	20.0	20.0	58	7.6	1	3	112	0.00	29.902 
12:30	20.3	20.3	20.3	58	7.9	0	2	22	0.00	29.888 
12:35	21.0	21.0	21.0	57	8.2	0	1	22	0.00	29.888 
12:40	21.4	21.4	21.4	56	8.2	1	2	22	0.00	29.888 
12:45	21.8	21.8	21.8	56	8.5	0	2	22	0.00	29.872 
12:50	22.2	22.2	22.2	55	8.5	0	2	22	0.00	29.872 
12:55	22.4	22.4	22.4	54	8.3	2	4	22	0.00	29.872 
13:00	22.1	22.1	22.1	54	8.0	2	4	90	0.00	29.862 
13:05	22.4	22.4	22.4	54	8.3	1	3	90	0.00	29.862 
13:10	22.7	22.7	22.7	54	8.6	1	4	90	0.00	29.862 
13:15	22.9	22.9	22.9	53	8.4	0	2	90	0.00	29.841 
13:20	23.0	23.0	23.0	53	8.4	1	2	90	0.00	29.841 
13:25	23.2	23.2	23.2	54	9.1	1	2	90	0.00	29.841 
13:30	22.9	22.9	22.9	53	8.4	2	4	90	0.00	29.833 
13:35	22.5	22.5	22.5	56	9.2	2	4	90	0.00	29.833 
13:40	22.4	22.4	22.4	55	8.7	1	4	90	0.00	29.833 
13:45	22.7	22.7	22.7	55	9.0	0	2	90	0.00	29.824 
13:50	23.0	23.0	23.0	55	9.3	1	4	90	0.00	29.824 
13:55	23.5	23.5	23.5	55	9.7	0	2	90	0.00	29.824 
14:00	23.9	23.9	23.9	54	9.7	0	2	90	0.00	29.817 
14:05	24.4	24.4	24.4	54	10.2	0	2	90	0.00	29.817 
14:10	24.4	24.4	24.4	53	9.8	1	4	90	0.00	29.817 
14:15	24.2	24.2	24.2	54	10.0	1	2	90	0.00	29.815 
14:20	24.4	24.4	24.4	53	9.8	1	4	90	0.00	29.815 
14:25	24.5	24.5	24.5	55	10.7	0	2	90	0.00	29.815 
14:30	24.7	24.7	24.7	53	10.0	1	3	90	0.00	29.805 
14:35	24.8	24.8	24.8	53	10.1	0	2	90	0.00	29.805 
14:40	25.6	25.6	25.6	53	10.9	0	1	90	0.00	29.805 
14:45	26.3	26.3	26.3	51	10.7	0	1	90	0.00	29.803 
14:50	26.7	26.7	26.7	52	11.5	0	1	90	0.00	29.803 
14:55	27.3	27.3	27.3	51	11.6	0	1	90	0.00	29.803 
15:00	27.8	27.8	27.8	50	11.6	0	1	90	0.00	29.794 
15:05	28.4	28.4	28.4	49	11.7	0	2	90	0.00	29.794 
15:10	28.7	28.7	28.7	47	11.0	1	3	90	0.00	29.794 
15:15	29.0	29.0	29.0	48	11.8	0	2	90	0.00	29.785 
15:20	29.0	29.0	29.0	48	11.8	1	2	90	0.00	29.785 
15:25	28.7	28.7	28.7	49	12.0	1	2	90	0.00	29.785 
15:30	28.4	28.4	28.4	49	11.7	1	3	90	0.00	29.770 
15:35	28.2	28.2	28.2	50	12.0	1	3	90	0.00	29.770 
15:40	28.2	28.2	28.2	50	12.0	0	2	90	0.00	29.770 
15:45	28.4	28.4	28.4	51	12.6	0	2	90	0.00	29.757 
15:50	28.2	28.2	28.2	51	12.4	0	2	90	0.00	29.757 
15:55	27.8	27.8	27.8	53	12.9	1	3	90	0.00	29.757 
16:00	27.0	27.0	27.0	55	13.0	0	3	90	0.00	29.748 
16:05	26.9	26.9	26.9	54	12.5	0	1	90	0.00	29.748 
16:10	26.7	26.7	26.7	55	12.7	0	1	90	0.00	29.748 
16:15	26.7	26.7	26.7	56	13.1	0	2	90	0.00	29.740 
16:20	26.6	26.6	26.6	57	13.4	0	1	90	0.00	29.740 
16:25	26.4	26.4	26.4	56	12.9	0	1	90	0.00	29.740 
16:30	26.3	26.3	26.3	58	13.6	1	3	90	0.00	29.737 
16:35	26.1	26.1	26.1	58	13.4	1	3	90	0.00	29.737 
16:40	26.0	26.0	26.0	57	12.9	2	4	90	0.00	29.737 
16:45	26.0	26.0	26.0	58	13.3	1	3	90	0.00	29.723 
16:50	25.8	25.8	25.8	58	13.1	1	4	90	0.00	29.723 
16:55	25.7	25.7	25.7	57	12.6	0	2	90	0.00	29.723 
17:00	25.6	25.6	25.6	57	12.5	0	2	90	0.00	29.731 
17:05	25.4	25.4	25.4	58	12.7	0	4	90	0.00	29.731 
17:10	25.3	25.3	25.3	58	12.6	0	1	90	0.00	29.731 
17:15	25.1	25.1	25.1	59	12.8	1	4	90	0.00	29.716 
17:20	24.7	24.7	24.7	60	12.8	2	4	90	0.00	29.716 
17:25	24.4	24.4	24.4	61	12.9	1	3	90	0.00	29.716 
17:30	24.2	24.2	24.2	62	13.1	1	4	90	0.00	29.706 
17:35	23.9	23.9	23.9	64	13.5	2	4	90	0.00	29.706 
17:40	23.3	23.3	23.3	66	13.6	3	5	90	0.00	29.706 
17:45	22.9	22.9	22.9	66	13.3	2	5	90	0.00	29.690 
17:50	22.4	22.4	22.4	68	13.5	3	5	90	0.00	29.690 
17:55	22.1	22.1	22.1	68	13.2	3	6	90	0.00	29.690 
18:00	21.8	21.8	21.8	69	13.2	3	6	90	0.00	29.683 
18:05	21.6	21.6	21.6	69	13.0	2	5	90	0.00	29.683 
18:10	21.3	21.3	21.3	70	13.1	1	3	90	0.00	29.683 
18:15	21.3	21.3	21.3	70	13.1	0	2	90	0.00	29.687 
18:20	21.0	21.0	21.0	71	13.1	0	2	90	0.00	29.687 
18:25	20.8	20.8	20.8	71	12.9	0	1	90	0.00	29.687 
18:30	20.6	20.6	20.6	72	13.0	0	0	---	0.00	29.689 
18:35	20.5	20.5	20.5	73	13.2	0	1	90	0.00	29.689 
18:40	20.5	20.5	20.5	73	13.2	0	1	90	0.00	29.689 
18:45	20.5	20.5	20.5	73	13.2	0	2	90	0.00	29.683 
18:50	20.5	20.5	20.5	73	13.2	0	1	90	0.00	29.683 
18:55	20.3	20.3	20.3	73	13.1	0	1	90	0.00	29.683 
19:00	20.2	20.2	20.2	73	13.0	0	0	---	0.00	29.686 
19:05	19.9	19.9	19.9	73	12.7	0	0	---	0.00	29.686 
19:10	19.7	19.7	19.7	73	12.5	0	2	90	0.00	29.686 
19:15	19.7	19.7	19.7	74	12.8	0	1	90	0.00	29.685 
19:20	19.9	19.9	19.9	74	13.0	0	1	90	0.00	29.685 
19:25	20.0	20.0	20.0	74	13.1	0	1	90	0.00	29.685 
19:30	20.3	20.3	20.3	73	13.1	0	2	90	0.00	29.684 
19:35	20.5	20.5	20.5	73	13.2	0	1	90	0.00	29.684 
19:40	20.8	20.8	20.8	72	13.2	1	2	90	0.00	29.684 
19:45	20.8	20.8	20.8	72	13.2	0	2	90	0.00	29.680 
19:50	21.0	21.0	21.0	72	13.4	0	2	90	0.00	29.680 
19:55	21.0	21.0	21.0	72	13.4	1	2	90	0.00	29.680 
20:00	21.0	21.0	21.0	72	13.4	1	2	90	0.00	29.673 
20:05	21.0	21.0	21.0	72	13.4	0	2	90	0.00	29.673 
20:10	21.0	21.0	21.0	72	13.4	0	1	90	0.00	29.673 
20:15	21.0	21.0	21.0	73	13.7	0	1	90	0.00	29.663 
20:20	21.0	21.0	21.0	73	13.7	0	1	90	0.00	29.663 
20:25	20.8	20.8	20.8	73	13.5	0	1	90	0.00	29.663 
20:30	20.6	20.6	20.6	72	13.0	0	1	90	0.00	29.654 
20:35	20.5	20.5	20.5	72	12.9	0	1	90	0.00	29.654 
20:40	20.0	20.0	20.0	73	12.8	0	1	90	0.00	29.654 
20:45	19.7	19.7	19.7	73	12.5	0	0	---	0.00	29.645 
20:50	19.2	19.2	19.2	73	12.0	0	0	---	0.00	29.645 
20:55	18.8	18.8	18.8	73	11.6	0	0	---	0.00	29.645 
21:00	18.4	18.4	18.4	74	11.5	0	0	---	0.00	29.634 
21:05	18.0	18.0	18.0	74	11.1	0	0	---	0.00	29.634 
21:10	17.5	17.5	17.5	75	11.0	0	0	---	0.00	29.634 
21:15	17.2	17.2	17.2	76	11.0	0	0	---	0.00	29.631 
21:20	16.9	16.9	16.9	77	11.0	0	0	---	0.00	29.631 
21:25	16.9	16.9	16.9	77	11.0	0	0	---	0.00	29.631 
21:30	17.0	17.0	17.0	79	11.6	0	1	90	0.00	29.626 
21:35	17.5	17.5	17.5	80	12.4	0	0	---	0.00	29.626 
21:40	18.0	18.0	18.0	80	12.9	0	0	---	0.00	29.626 
21:45	18.4	18.4	18.4	80	13.3	0	1	90	0.00	29.615 
21:50	18.9	18.9	18.9	79	13.5	0	1	90	0.00	29.615 
21:55	19.2	19.2	19.2	79	13.8	0	0	---	0.00	29.615 
22:00	19.4	19.4	19.4	79	14.0	0	1	90	0.00	29.609 
22:05	19.9	19.9	19.9	78	14.2	0	1	90	0.00	29.609 
22:10	20.3	20.3	20.3	77	14.3	0	1	90	0.00	29.609 
22:15	20.6	20.6	20.6	76	14.3	0	1	90	0.00	29.595 
22:20	21.1	21.1	21.1	75	14.4	0	2	90	0.00	29.595 
22:25	21.8	21.8	21.8	73	14.5	0	2	90	0.00	29.595 
22:30	22.4	22.4	22.4	72	14.8	0	1	90	0.00	29.588 
22:35	23.2	23.2	23.2	70	14.9	0	2	90	0.00	29.588 
22:40	23.9	23.9	23.9	69	15.2	0	2	90	0.00	29.588 
22:45	24.8	24.8	24.8	67	15.4	0	3	90	0.00	29.573 
22:50	25.6	25.6	25.6	65	15.5	0	3	90	0.00	29.573 
22:55	26.3	26.3	26.3	64	15.8	1	3	270	0.00	29.573 
23:00	26.7	26.7	26.7	63	15.8	1	3	292	0.00	29.565 
23:05	27.0	27.0	27.0	63	16.1	1	4	270	0.00	29.565 
23:10	27.5	27.5	27.5	62	16.2	1	3	270	0.00	29.565 
23:15	27.6	27.6	27.6	62	16.3	1	5	270	0.00	29.550 
23:20	27.9	27.9	27.9	63	17.0	1	5	248	0.00	29.550 
23:25	28.1	28.1	28.1	63	17.2	1	3	248	0.00	29.550 
23:30	28.2	28.2	28.2	63	17.2	0	2	248	0.00	29.540 
23:35	28.4	28.4	28.4	64	17.8	1	4	248	0.00	29.540 
23:40	28.5	28.5	28.5	64	17.9	1	3	45	0.00	29.540 
23:45	28.7	28.7	28.7	64	18.1	1	3	270	0.00	29.534 
23:50	29.0	29.0	29.0	64	18.4	1	3	270	0.00	29.534 
23:55	29.1	29.1	29.1	65	18.8	0	2	270	0.00	29.534 

CoCoRaHS
IN-AL-39
A2 Web Hosting
Creative Commons License
GoDaddy
search engine by freefind advanced

loaded 2018-11-15 03:23:31 • last modified 2010-11-18 10:43:29
Privacy PolicyDisclaimer
• wx.awcolley.com is powered by PmWiki v.2002016 •
• all content (unless otherwise noted) © 2018 A W Colley